Time;durP1;ratioP1;P1;durP2;ratioP2;P2;SDS_P1;SDS_P2;PMS_P1;PMS_P2;Temp;Humidity;BMP_temperature;BMP_pressure;BME280_temperature;BME280_humidity;BME280_pressure;Samples;Min_cycle;Max_cycle;Signal;HPM_P1;HPM_P2
2022/07/06 00:02:11;;;;;;;;;;;;;;;-147.11;100.00;61570.13;5022108;28;19928;-58
2022/07/06 00:04:36;;;;;;;;;;;;;;;-147.11;100.00;61570.13;5022862;28;19928;-57
2022/07/06 00:07:02;;;;;;;;;;;;;;;-147.11;100.00;61570.13;5018312;28;19913;-58
2022/07/06 00:09:27;;;;;;;;;;;;;;;-147.11;100.00;61570.13;5021713;28;19921;-58
2022/07/06 00:11:52;;;;;;;;;;;;;;;-147.11;100.00;61570.13;5018812;28;20369;-55
2022/07/06 00:14:18;;;;;;;;;;;;;;;-147.11;100.00;61570.13;5014520;28;19921;-57
2022/07/06 00:16:43;;;;;;;;;;;;;;;-147.11;100.00;61570.13;5020061;28;19917;-60
2022/07/06 00:19:08;;;;;;;;;;;;;;;-147.11;100.00;61570.13;5024517;28;20539;-61
2022/07/06 00:21:33;;;;;;;;;;;;;;;-147.11;100.00;61570.13;5013152;28;20465;-59
2022/07/06 00:23:59;;;;;;;;;;;;;;;-147.11;100.00;61570.13;5018305;28;19924;-58
2022/07/06 00:26:25;;;;;;;;;;;;;;;-147.11;100.00;61570.13;5021346;28;19932;-60
2022/07/06 00:28:50;;;;;;;;;;;;;;;-147.11;100.00;61570.13;5017087;28;19921;-61
2022/07/06 00:31:15;;;;;;;;;;;;;;;-147.11;100.00;61570.13;5019725;28;20416;-59
2022/07/06 00:33:41;;;;;;;;;;;;;;;-147.11;100.00;61570.13;5020010;28;20059;-60
2022/07/06 00:36:06;;;;;;;;;;;;;;;-147.11;100.00;61570.13;5016951;28;20527;-57
2022/07/06 00:38:31;;;;;;;;;;;;;;;-147.11;100.00;61570.13;5017883;28;19943;-56
2022/07/06 00:40:57;;;;;;;;;;;;;;;-147.11;100.00;61570.13;5013442;28;19924;-54
2022/07/06 00:43:22;;;;;;;;;;;;;;;-147.11;100.00;61570.13;5023404;28;19916;-56
2022/07/06 00:45:47;;;;;;;;;;;;;;;-147.11;100.00;61570.13;5022324;28;19917;-60
2022/07/06 00:48:13;;;;;;;;;;;;;;;-147.11;100.00;61570.13;5019164;28;20454;-58
2022/07/06 00:50:38;;;;;;;;;;;;;;;-147.11;100.00;61570.13;5017539;28;19920;-60
2022/07/06 00:53:05;;;;;;;;;;;;;;;-147.11;100.00;61570.13;5024435;28;19917;-58
2022/07/06 00:55:32;;;;;;;;;;;;;;;-147.11;100.00;61570.13;5022409;28;20391;-57
2022/07/06 00:57:59;;;;;;;;;;;;;;;-147.11;100.00;61570.13;5021504;28;19982;-58
2022/07/06 01:00:25;;;;;;;;;;;;;;;-147.11;100.00;61570.13;5014513;28;20288;-60
2022/07/06 01:02:51;;;;;;;;;;;;;;;-147.11;100.00;61570.13;5016404;28;19924;-58
2022/07/06 01:05:17;;;;;;;;;;;;;;;-147.11;100.00;61570.13;5019248;28;20360;-60
2022/07/06 01:07:43;;;;;;;;;;;;;;;-147.11;100.00;61570.13;5018377;28;19982;-60
2022/07/06 01:10:09;;;;;;;;;;;;;;;-147.11;100.00;61570.13;5027185;28;19913;-60
2022/07/06 01:12:36;;;;;;;;;;;;;;;-147.11;100.00;61570.13;5020509;28;19974;-60
2022/07/06 01:15:03;;;;;;;;;;;;;;;-147.11;100.00;61570.13;5023682;28;20011;-60
2022/07/06 01:17:28;;;;;;;;;;;;;;;-147.11;100.00;61570.13;5015977;28;20348;-61
2022/07/06 01:19:54;;;;;;;;;;;;;;;-147.11;100.00;61570.13;5021542;28;19920;-60
2022/07/06 01:22:19;;;;;;;;;;;;;;;-147.11;100.00;61570.13;5020249;28;20499;-60
2022/07/06 01:24:44;;;;;;;;;;;;;;;-147.11;100.00;61570.13;5026853;28;19924;-60
2022/07/06 01:27:10;;;;;;;;;;;;;;;-147.11;100.00;61570.13;5019722;28;19921;-60
2022/07/06 01:29:35;;;;;;;;;;;;;;;-147.11;100.00;61570.13;5022169;28;19937;-56
2022/07/06 01:32:00;;;;;;;;;;;;;;;-147.11;100.00;61570.13;5020452;28;20010;-60
2022/07/06 01:34:26;;;;;;;;;;;;;;;-147.11;100.00;61570.13;5020919;28;20396;-59
2022/07/06 01:36:51;;;;;;;;;;;;;;;-147.11;100.00;61570.13;5019369;28;19913;-59
2022/07/06 01:39:17;;;;;;;;;;;;;;;-147.11;100.00;61570.13;5022642;28;19928;-59
2022/07/06 01:41:42;;;;;;;;;;;;;;;-147.11;100.00;61570.13;5021789;28;20483;-58
2022/07/06 01:44:08;;;;;;;;;;;;;;;-147.11;100.00;61570.13;5023084;28;19921;-58
2022/07/06 01:46:33;;;;;;;;;;;;;;;-147.11;100.00;61570.13;5024480;28;19920;-56
2022/07/06 01:48:59;;;;;;;;;;;;;;;-147.11;100.00;61570.13;5019187;28;20967;-60
2022/07/06 01:51:24;;;;;;;;;;;;;;;-147.11;100.00;61570.13;5012772;28;19920;-59
2022/07/06 01:53:50;;;;;;;;;;;;;;;-147.11;100.00;61570.13;5023075;28;20372;-59
2022/07/06 01:56:15;;;;;;;;;;;;;;;-147.11;100.00;61570.13;5021307;28;19936;-60
2022/07/06 01:58:41;;;;;;;;;;;;;;;-147.11;100.00;61570.13;5019083;28;19917;-59
2022/07/06 02:01:16;;;;;;;;;;;;;;;-147.11;100.00;61570.13;5024429;28;20380;-59
2022/07/06 02:03:42;;;;;;;;;;;;;;;-147.11;100.00;61570.13;5019840;28;19917;-59
2022/07/06 02:06:07;;;;;;;;;;;;;;;-147.11;100.00;61570.13;5014072;28;19914;-60
2022/07/06 02:08:33;;;;;;;;;;;;;;;-147.11;100.00;61570.13;5016368;28;19914;-58
2022/07/06 02:10:59;;;;;;;;;;;;;;;-147.11;100.00;61570.13;5025510;28;19912;-60
2022/07/06 02:13:24;;;;;;;;;;;;;;;-147.11;100.00;61570.13;5024692;28;19913;-56
2022/07/06 02:15:50;;;;;;;;;;;;;;;-147.11;100.00;61570.13;5024038;28;19917;-60
2022/07/06 02:18:15;;;;;;;;;;;;;;;-147.11;100.00;61570.13;5029558;28;19952;-60
2022/07/06 02:20:40;;;;;;;;;;;;;;;-147.11;100.00;61570.13;5026572;28;19993;-57
2022/07/06 02:23:06;;;;;;;;;;;;;;;-147.11;100.00;61570.13;5024819;28;19921;-55
2022/07/06 02:25:31;;;;;;;;;;;;;;;-147.11;100.00;61570.13;5020943;28;19918;-56
2022/07/06 02:27:56;;;;;;;;;;;;;;;-147.11;100.00;61570.13;5024895;28;20283;-60
2022/07/06 02:30:22;;;;;;;;;;;;;;;-147.11;100.00;61570.13;5025908;28;21596;-59
2022/07/06 02:32:47;;;;;;;;;;;;;;;-147.11;100.00;61570.13;5031855;28;19917;-58
2022/07/06 02:35:12;;;;;;;;;;;;;;;-147.11;100.00;61570.13;5029176;28;19925;-60
2022/07/06 02:37:38;;;;;;;;;;;;;;;-147.11;100.00;61570.13;5021790;28;19913;-59
2022/07/06 02:40:03;;;;;;;;;;;;;;;-147.11;100.00;61570.13;5021029;28;19928;-56
2022/07/06 02:42:29;;;;;;;;;;;;;;;-147.11;100.00;61570.13;5023938;28;19929;-55
2022/07/06 02:44:54;;;;;;;;;;;;;;;-147.11;100.00;61570.13;5020777;28;19925;-56
2022/07/06 02:47:19;;;;;;;;;;;;;;;-147.11;100.00;61570.13;5022889;28;19917;-54
2022/07/06 02:49:45;;;;;;;;;;;;;;;-147.11;100.00;61570.13;5024877;28;20280;-52
2022/07/06 02:52:10;;;;;;;;;;;;;;;-147.11;100.00;61570.13;5016383;28;19979;-54
2022/07/06 02:54:35;;;;;;;;;;;;;;;-147.11;100.00;61570.13;5027488;28;19956;-57
2022/07/06 02:57:01;;;;;;;;;;;;;;;-147.11;100.00;61570.13;5047897;22;19939;-63
2022/07/06 02:59:26;;;;;;;;;;;;;;;-147.11;100.00;61570.13;5039085;28;19928;-60
2022/07/06 03:01:51;;;;;;;;;;;;;;;-147.11;100.00;61570.13;5043372;28;19944;-60
2022/07/06 03:04:17;;;;;;;;;;;;;;;-147.11;100.00;61570.13;5043884;28;19912;-61
2022/07/06 03:06:42;;;;;;;;;;;;;;;-147.11;100.00;61570.13;5022468;28;20378;-61
2022/07/06 03:09:08;;;;;;;;;;;;;;;-147.11;100.00;61570.13;5039778;28;19925;-59
2022/07/06 03:11:35;;;;;;;;;;;;;;;-147.11;100.00;61570.13;5046243;28;20062;-61
2022/07/06 03:14:02;;;;;;;;;;;;;;;-147.11;100.00;61570.13;5044736;28;19920;-62
2022/07/06 03:16:28;;;;;;;;;;;;;;;-147.11;100.00;61570.13;5038532;28;19920;-60
2022/07/06 03:18:53;;;;;;;;;;;;;;;-147.11;100.00;61570.13;5047621;28;19920;-61
2022/07/06 03:21:18;;;;;;;;;;;;;;;-147.11;100.00;61570.13;5040954;28;20362;-62
2022/07/06 03:23:44;;;;;;;;;;;;;;;-147.11;100.00;61570.13;5044236;28;19955;-59
2022/07/06 03:26:09;;;;;;;;;;;;;;;-147.11;100.00;61570.13;5043757;28;19969;-63
2022/07/06 03:28:34;;;;;;;;;;;;;;;-147.11;100.00;61570.13;5042716;28;19917;-58
2022/07/06 03:30:59;;;;;;;;;;;;;;;-147.11;100.00;61570.13;5043889;28;19916;-62
2022/07/06 03:33:25;;;;;;;;;;;;;;;-147.11;100.00;61570.13;5040935;28;20368;-63
2022/07/06 03:35:50;;;;;;;;;;;;;;;-147.11;100.00;61570.13;5049613;28;19928;-58
2022/07/06 03:38:15;;;;;;;;;;;;;;;-147.11;100.00;61570.13;5047132;28;20366;-61
2022/07/06 03:40:41;;;;;;;;;;;;;;;-147.11;100.00;61570.13;5045542;28;19939;-59
2022/07/06 03:43:06;;;;;;;;;;;;;;;-147.11;100.00;61570.13;5050800;28;19913;-60
2022/07/06 03:45:31;;;;;;;;;;;;;;;-147.11;100.00;61570.13;5048160;28;19927;-61
2022/07/06 03:47:57;;;;;;;;;;;;;;;-147.11;100.00;61570.13;5047048;28;19919;-60
2022/07/06 03:50:22;;;;;;;;;;;;;;;-147.11;100.00;61570.13;5044833;28;19917;-61
2022/07/06 03:52:47;;;;;;;;;;;;;;;-147.11;100.00;61570.13;5045173;28;20132;-62
2022/07/06 03:55:13;;;;;;;;;;;;;;;-147.11;100.00;61570.13;5048414;28;19909;-59
2022/07/06 03:57:40;;;;;;;;;;;;;;;-147.11;100.00;61570.13;5051482;28;19947;-60
2022/07/06 04:00:06;;;;;;;;;;;;;;;-147.11;100.00;61570.13;5042681;28;19917;-57
2022/07/06 04:02:31;;;;;;;;;;;;;;;-147.11;100.00;61570.13;5041716;28;20346;-60
2022/07/06 04:04:57;;;;;;;;;;;;;;;-147.11;100.00;61570.13;5044797;28;19916;-61
2022/07/06 04:07:22;;;;;;;;;;;;;;;-147.11;100.00;61570.13;5045707;28;20311;-64
2022/07/06 04:09:47;;;;;;;;;;;;;;;-147.11;100.00;61570.13;5039377;28;19926;-62
2022/07/06 04:12:13;;;;;;;;;;;;;;;-147.11;100.00;61570.13;5045608;28;19927;-59
2022/07/06 04:14:38;;;;;;;;;;;;;;;-147.11;100.00;61570.13;5048333;28;19920;-63
2022/07/06 04:17:51;;;;;;;;;;;;;;;-147.11;100.00;61570.13;5047062;28;19923;-59
2022/07/06 04:19:49;;;;;;;;;;;;;;;-147.11;100.00;61570.13;5051365;28;20288;-61
2022/07/06 04:22:15;;;;;;;;;;;;;;;-147.11;100.00;61570.13;5046319;28;19921;-62
2022/07/06 04:24:40;;;;;;;;;;;;;;;-147.11;100.00;61570.13;5049059;28;19998;-60
2022/07/06 04:27:05;;;;;;;;;;;;;;;-147.11;100.00;61570.13;5046936;28;19920;-61
2022/07/06 04:29:31;;;;;;;;;;;;;;;-147.11;100.00;61570.13;5041697;28;19981;-60
2022/07/06 04:31:56;;;;;;;;;;;;;;;-147.11;100.00;61570.13;5051291;28;20376;-58
2022/07/06 04:34:22;;;;;;;;;;;;;;;-147.11;100.00;61570.13;5044732;28;20261;-60
2022/07/06 04:36:47;;;;;;;;;;;;;;;-147.11;100.00;61570.13;5044194;28;19917;-60
2022/07/06 04:39:12;;;;;;;;;;;;;;;-147.11;100.00;61570.13;5039005;28;20047;-61
2022/07/06 04:41:38;;;;;;;;;;;;;;;-147.11;100.00;61570.13;5044017;28;19944;-59
2022/07/06 04:44:03;;;;;;;;;;;;;;;-147.11;100.00;61570.13;5045657;28;19924;-62
2022/07/06 04:46:28;;;;;;;;;;;;;;;-147.11;100.00;61570.13;5036000;28;19924;-57
2022/07/06 04:48:54;;;;;;;;;;;;;;;-147.11;100.00;61570.13;5047737;28;19934;-61
2022/07/06 04:51:19;;;;;;;;;;;;;;;-147.11;100.00;61570.13;5045667;28;19979;-63
2022/07/06 04:53:45;;;;;;;;;;;;;;;-147.11;100.00;61570.13;5046742;28;19978;-57
2022/07/06 04:56:10;;;;;;;;;;;;;;;-147.11;100.00;61570.13;5047000;28;19924;-63
2022/07/06 04:58:36;;;;;;;;;;;;;;;-147.11;100.00;61570.13;5039759;28;19928;-62
2022/07/06 05:01:01;;;;;;;;;;;;;;;-147.11;100.00;61570.13;5042304;28;19916;-62
2022/07/06 05:03:26;;;;;;;;;;;;;;;-147.11;100.00;61570.13;5046273;28;19936;-63
2022/07/06 05:05:52;;;;;;;;;;;;;;;-147.11;100.00;61570.13;5041418;28;20286;-61
2022/07/06 05:08:17;;;;;;;;;;;;;;;-147.11;100.00;61570.13;5042201;28;20000;-63
2022/07/06 05:10:42;;;;;;;;;;;;;;;-147.11;100.00;61570.13;5039771;28;19913;-62
2022/07/06 05:13:08;;;;;;;;;;;;;;;-147.11;100.00;61570.13;5036978;28;19923;-62
2022/07/06 05:15:33;;;;;;;;;;;;;;;-147.11;100.00;61570.13;5025186;28;19939;-62
2022/07/06 05:17:58;;;;;;;;;;;;;;;-147.11;100.00;61570.13;5043040;28;19920;-61
2022/07/06 05:20:23;;;;;;;;;;;;;;;-147.11;100.00;61570.13;5033911;28;19920;-56
2022/07/06 05:22:49;;;;;;;;;;;;;;;-147.11;100.00;61570.13;5045393;28;19917;-60
2022/07/06 05:25:14;;;;;;;;;;;;;;;-147.11;100.00;61570.13;5044308;28;19917;-56
2022/07/06 05:27:39;;;;;;;;;;;;;;;-147.11;100.00;61570.13;5034646;28;20403;-58
2022/07/06 05:30:05;;;;;;;;;;;;;;;-147.11;100.00;61570.13;5036280;28;19925;-63
2022/07/06 05:32:30;;;;;;;;;;;;;;;-147.11;100.00;61570.13;5041152;28;19920;-62
2022/07/06 05:34:56;;;;;;;;;;;;;;;-147.11;100.00;61570.13;5042657;28;20863;-62
2022/07/06 05:37:21;;;;;;;;;;;;;;;-147.11;100.00;61570.13;5034486;28;19920;-61
2022/07/06 05:39:49;;;;;;;;;;;;;;;-147.11;100.00;61570.13;5039495;28;19919;-61
2022/07/06 05:42:14;;;;;;;;;;;;;;;-147.11;100.00;61570.13;5041591;28;19921;-61
2022/07/06 05:44:40;;;;;;;;;;;;;;;-147.11;100.00;61570.13;5034941;28;19912;-62
2022/07/06 05:52:33;;;;;;;;;;;;;;;-147.11;100.00;61570.13;5045768;28;19932;-61
2022/07/06 05:54:59;;;;;;;;;;;;;;;-147.11;100.00;61570.13;5050049;28;19916;-60
2022/07/06 05:57:24;;;;;;;;;;;;;;;-147.11;100.00;61570.13;5049884;28;19924;-62
2022/07/06 05:59:49;;;;;;;;;;;;;;;-147.11;100.00;61570.13;5048324;28;19913;-60
2022/07/06 06:02:14;;;;;;;;;;;;;;;-147.11;100.00;61570.13;5047129;28;20277;-60
2022/07/06 06:04:40;;;;;;;;;;;;;;;-147.11;100.00;61570.13;5051628;28;20409;-60
2022/07/06 06:07:05;;;;;;;;;;;;;;;-147.11;100.00;61570.13;5045735;28;20414;-58
2022/07/06 06:09:30;;;;;;;;;;;;;;;-147.11;100.00;61570.13;5049567;28;20602;-58
2022/07/06 06:11:56;;;;;;;;;;;;;;;-147.11;100.00;61570.13;5044572;28;19920;-58
2022/07/06 06:14:21;;;;;;;;;;;;;;;-147.11;100.00;61570.13;5045971;28;19951;-58
2022/07/06 06:16:46;;;;;;;;;;;;;;;-147.11;100.00;61570.13;5048316;28;19917;-60
2022/07/06 06:19:12;;;;;;;;;;;;;;;-147.11;100.00;61570.13;5050706;28;19938;-58
2022/07/06 06:21:37;;;;;;;;;;;;;;;-147.11;100.00;61570.13;5045570;28;19928;-58
2022/07/06 06:24:02;;;;;;;;;;;;;;;-147.11;100.00;61570.13;5045907;28;19920;-61
2022/07/06 06:26:28;;;;;;;;;;;;;;;-147.11;100.00;61570.13;5048122;28;20039;-61
2022/07/06 06:28:53;;;;;;;;;;;;;;;-147.11;100.00;61570.13;5047503;28;20364;-62
2022/07/06 06:31:18;;;;;;;;;;;;;;;-147.11;100.00;61570.13;5050610;28;20386;-62
2022/07/06 06:33:43;;;;;;;;;;;;;;;-147.11;100.00;61570.13;5050526;28;19913;-62
2022/07/06 06:36:09;;;;;;;;;;;;;;;-147.11;100.00;61570.13;5049471;28;19916;-62
2022/07/06 06:38:34;;;;;;;;;;;;;;;-147.11;100.00;61570.13;5049166;28;19935;-59
2022/07/06 06:41:01;;;;;;;;;;;;;;;-147.11;100.00;61570.13;5046828;28;19912;-59
2022/07/06 06:43:26;;;;;;;;;;;;;;;-147.11;100.00;61570.13;5044508;28;19916;-59
2022/07/06 06:45:52;;;;;;;;;;;;;;;-147.11;100.00;61570.13;5046327;28;19958;-57
2022/07/06 06:48:18;;;;;;;;;;;;;;;-147.11;100.00;61570.13;5051939;28;20381;-60
2022/07/06 06:50:44;;;;;;;;;;;;;;;-147.11;100.00;61570.13;5057517;28;20003;-58
2022/07/06 06:53:10;;;;;;;;;;;;;;;-147.11;100.00;61570.13;5049698;28;19977;-60
2022/07/06 06:55:35;;;;;;;;;;;;;;;-147.11;100.00;61570.13;5051456;28;21585;-60
2022/07/06 06:58:00;;;;;;;;;;;;;;;-147.11;100.00;61570.13;5046557;28;20066;-61
2022/07/06 07:00:26;;;;;;;;;;;;;;;-147.11;100.00;61570.13;5046566;28;20015;-59
2022/07/06 07:02:51;;;;;;;;;;;;;;;-147.11;100.00;61570.13;5052766;28;20066;-63
2022/07/06 07:05:16;;;;;;;;;;;;;;;-147.11;100.00;61570.13;5052166;28;19923;-57
2022/07/06 07:07:42;;;;;;;;;;;;;;;-147.11;100.00;61570.13;5051851;28;19924;-57
2022/07/06 07:10:08;;;;;;;;;;;;;;;-147.11;100.00;61570.13;5062129;28;19916;-60
2022/07/06 07:12:33;;;;;;;;;;;;;;;-147.11;100.00;61570.13;5051066;28;19913;-61
2022/07/06 07:14:59;;;;;;;;;;;;;;;-147.11;100.00;61570.13;5048541;28;19926;-60
2022/07/06 07:17:24;;;;;;;;;;;;;;;-147.11;100.00;61570.13;5050762;28;19944;-59
2022/07/06 07:19:50;;;;;;;;;;;;;;;-147.11;100.00;61570.13;5047973;28;25518;-62
2022/07/06 07:22:15;;;;;;;;;;;;;;;-147.11;100.00;61570.13;5050629;28;20414;-59
2022/07/06 07:24:40;;;;;;;;;;;;;;;-147.11;100.00;61570.13;5056745;28;19995;-60
2022/07/06 07:27:06;;;;;;;;;;;;;;;-147.11;100.00;61570.13;5053235;28;19962;-60
2022/07/06 07:29:31;;;;;;;;;;;;;;;-147.11;100.00;61570.13;5048230;28;19924;-60
2022/07/06 07:31:57;;;;;;;;;;;;;;;-147.11;100.00;61570.13;5032489;28;19959;-60
2022/07/06 07:34:22;;;;;;;;;;;;;;;-147.11;100.00;61570.13;5049336;28;19958;-57
2022/07/06 07:36:47;;;;;;;;;;;;;;;-147.11;100.00;61570.13;5037872;28;19925;-61
2022/07/06 07:39:12;;;;;;;;;;;;;;;-147.11;100.00;61570.13;5045263;28;19963;-60
2022/07/06 07:41:38;;;;;;;;;;;;;;;-147.11;100.00;61570.13;5047322;28;20019;-58
2022/07/06 07:44:03;;;;;;;;;;;;;;;-147.11;100.00;61570.13;5031608;28;19916;-61
2022/07/06 07:46:28;;;;;;;;;;;;;;;-147.11;100.00;61570.13;5050959;28;20406;-63
2022/07/06 07:48:54;;;;;;;;;;;;;;;-147.11;100.00;61570.13;5048087;28;20403;-63
2022/07/06 07:51:19;;;;;;;;;;;;;;;-147.11;100.00;61570.13;5046165;28;20295;-60
2022/07/06 07:53:45;;;;;;;;;;;;;;;-147.11;100.00;61570.13;5048705;28;19912;-60
2022/07/06 07:56:10;;;;;;;;;;;;;;;-147.11;100.00;61570.13;5050975;28;20300;-57
2022/07/06 07:58:35;;;;;;;;;;;;;;;-147.11;100.00;61570.13;5052200;28;20113;-58
2022/07/06 08:01:01;;;;;;;;;;;;;;;-147.11;100.00;61570.13;5045771;28;19912;-59
2022/07/06 08:03:26;;;;;;;;;;;;;;;-147.11;100.00;61570.13;5058605;28;20466;-59
2022/07/06 08:05:52;;;;;;;;;;;;;;;-147.11;100.00;61570.13;5044716;28;20062;-62
2022/07/06 08:08:18;;;;;;;;;;;;;;;-147.11;100.00;61570.13;5046940;28;19912;-61
2022/07/06 08:10:43;;;;;;;;;;;;;;;-147.11;100.00;61570.13;5031869;28;19916;-58
2022/07/06 08:13:10;;;;;;;;;;;;;;;-147.11;100.00;61570.13;5053413;28;19928;-60
2022/07/06 08:15:35;;;;;;;;;;;;;;;-147.11;100.00;61570.13;5047313;28;19923;-60
2022/07/06 08:18:01;;;;;;;;;;;;;;;-147.11;100.00;61570.13;5041200;28;19924;-64
2022/07/06 08:20:26;;;;;;;;;;;;;;;-147.11;100.00;61570.13;5038961;28;19931;-59
2022/07/06 08:22:52;;;;;;;;;;;;;;;-147.11;100.00;61570.13;5054287;28;20363;-58
2022/07/06 08:25:17;;;;;;;;;;;;;;;-147.11;100.00;61570.13;5047650;28;19925;-57
2022/07/06 08:27:43;;;;;;;;;;;;;;;-147.11;100.00;61570.13;5049850;28;20323;-57
2022/07/06 08:30:09;;;;;;;;;;;;;;;-147.11;100.00;61570.13;5050887;28;19912;-61
2022/07/06 08:32:36;;;;;;;;;;;;;;;-147.11;100.00;61570.13;5049831;28;19935;-61
2022/07/06 08:35:01;;;;;;;;;;;;;;;-147.11;100.00;61570.13;5053181;28;19927;-59
2022/07/06 08:37:27;;;;;;;;;;;;;;;-147.11;100.00;61570.13;5052152;28;20003;-62
2022/07/06 08:39:52;;;;;;;;;;;;;;;-147.11;100.00;61570.13;5046267;28;19913;-58
2022/07/06 08:42:18;;;;;;;;;;;;;;;-147.11;100.00;61570.13;5046738;28;20027;-60
2022/07/06 08:44:43;;;;;;;;;;;;;;;-147.11;100.00;61570.13;5048972;28;19923;-59
2022/07/06 08:47:09;;;;;;;;;;;;;;;-147.11;100.00;61570.13;5044850;28;20742;-58
2022/07/06 08:49:36;;;;;;;;;;;;;;;-147.11;100.00;61570.13;5037577;28;20466;-60
2022/07/06 08:52:02;;;;;;;;;;;;;;;-147.11;100.00;61570.13;5046357;28;20302;-58
2022/07/06 08:54:27;;;;;;;;;;;;;;;-147.11;100.00;61570.13;5048802;28;20383;-58
2022/07/06 08:56:53;;;;;;;;;;;;;;;-147.11;100.00;61570.13;5049209;28;19916;-59
2022/07/06 08:59:18;;;;;;;;;;;;;;;-147.11;100.00;61570.13;5050534;28;20534;-58
2022/07/06 09:01:44;;;;;;;;;;;;;;;-147.11;100.00;61570.13;5046871;28;19920;-59
2022/07/06 09:04:11;;;;;;;;;;;;;;;-147.11;100.00;61570.13;5044467;28;19931;-59
2022/07/06 09:06:37;;;;;;;;;;;;;;;-147.11;100.00;61570.13;5042058;28;20283;-58
2022/07/06 09:09:05;;;;;;;;;;;;;;;-147.11;100.00;61570.13;5042302;28;19925;-60
2022/07/06 09:11:30;;;;;;;;;;;;;;;-147.11;100.00;61570.13;5046025;28;19912;-58
2022/07/06 09:13:56;;;;;;;;;;;;;;;-147.11;100.00;61570.13;5011192;28;20034;-59
2022/07/06 09:16:27;;;;;;;;;;;;;;;-147.11;100.00;61570.13;5044648;28;19920;-60
2022/07/06 09:18:52;;;;;;;;;;;;;;;-147.11;100.00;61570.13;5045372;28;19917;-60
2022/07/06 09:21:30;;;;;;;;;;;;;;;-147.11;100.00;61570.13;5037031;28;19916;-59
2022/07/06 09:23:56;;;;;;;;;;;;;;;-147.11;100.00;61570.13;5038206;28;19959;-59
2022/07/06 09:26:22;;;;;;;;;;;;;;;-147.11;100.00;61570.13;5046580;28;20475;-61
2022/07/06 09:28:48;;;;;;;;;;;;;;;-147.11;100.00;61570.13;5046226;28;20443;-60
2022/07/06 09:31:13;;;;;;;;;;;;;;;-147.11;100.00;61570.13;5048214;28;19912;-61
2022/07/06 09:33:39;;;;;;;;;;;;;;;-147.11;100.00;61570.13;5041128;28;19921;-58
2022/07/06 09:36:05;;;;;;;;;;;;;;;-147.11;100.00;61570.13;5045351;28;19923;-61
2022/07/06 09:38:31;;;;;;;;;;;;;;;-147.11;100.00;61570.13;5050746;28;20007;-59
2022/07/06 09:40:56;;;;;;;;;;;;;;;-147.11;100.00;61570.13;5048362;28;20015;-59
2022/07/06 09:43:23;;;;;;;;;;;;;;;-147.11;100.00;61570.13;5051440;28;19913;-58
2022/07/06 09:45:49;;;;;;;;;;;;;;;-147.11;100.00;61570.13;5037062;28;19952;-63
2022/07/06 09:48:22;;;;;;;;;;;;;;;-147.11;100.00;61570.13;5034726;28;19919;-61
2022/07/06 09:50:50;;;;;;;;;;;;;;;-147.11;100.00;61570.13;5045128;28;19935;-57
2022/07/06 09:53:16;;;;;;;;;;;;;;;-147.11;100.00;61570.13;5041956;28;20375;-60
2022/07/06 09:55:49;;;;;;;;;;;;;;;-147.11;100.00;61570.13;5051812;28;19909;-57
2022/07/06 09:58:15;;;;;;;;;;;;;;;-147.11;100.00;61570.13;5047244;28;19913;-60
2022/07/06 10:00:41;;;;;;;;;;;;;;;-147.11;100.00;61570.13;5044505;28;19935;-57
2022/07/06 10:03:07;;;;;;;;;;;;;;;-147.11;100.00;61570.13;5046113;28;19955;-60
2022/07/06 10:05:33;;;;;;;;;;;;;;;-147.11;100.00;61570.13;5043391;28;19934;-58
2022/07/06 10:07:59;;;;;;;;;;;;;;;-147.11;100.00;61570.13;5046701;28;19974;-57
2022/07/06 10:10:26;;;;;;;;;;;;;;;-147.11;100.00;61570.13;5048682;28;20389;-59
2022/07/06 10:12:53;;;;;;;;;;;;;;;-147.11;100.00;61570.13;5049601;28;19913;-63
2022/07/06 10:15:18;;;;;;;;;;;;;;;-147.11;100.00;61570.13;5051686;28;20398;-59
2022/07/06 10:17:45;;;;;;;;;;;;;;;-147.11;100.00;61570.13;5041060;28;19917;-62
2022/07/06 10:20:11;;;;;;;;;;;;;;;-147.11;100.00;61570.13;5042274;28;19933;-61
2022/07/06 10:22:37;;;;;;;;;;;;;;;-147.11;100.00;61570.13;5044167;28;19923;-60
2022/07/06 10:25:04;;;;;;;;;;;;;;;-147.11;100.00;61570.13;5052397;28;19938;-59
2022/07/06 10:27:29;;;;;;;;;;;;;;;-147.11;100.00;61570.13;5017275;28;19921;-60
2022/07/06 10:29:54;;;;;;;;;;;;;;;-147.11;100.00;61570.13;5038606;28;19927;-59
2022/07/06 10:32:21;;;;;;;;;;;;;;;-147.11;100.00;61570.13;5034898;28;20015;-62
2022/07/06 10:34:47;;;;;;;;;;;;;;;-147.11;100.00;61570.13;5036258;28;19992;-63
2022/07/06 10:37:23;;;;;;;;;;;;;;;-147.11;100.00;61570.13;5048295;28;20106;-61
2022/07/06 10:42:46;;;;;;;;;;;;;;;-147.11;100.00;61570.13;5046244;28;19927;-62
2022/07/06 10:45:12;;;;;;;;;;;;;;;-147.11;100.00;61570.13;5046317;28;19924;-63
2022/07/06 10:47:39;;;;;;;;;;;;;;;-147.11;100.00;61570.13;5048892;28;19966;-60
2022/07/06 10:50:05;;;;;;;;;;;;;;;-147.11;100.00;61570.13;5028848;28;19924;-64
2022/07/06 10:52:49;;;;;;;;;;;;;;;-147.11;100.00;61570.13;5046918;28;19921;-62
2022/07/06 10:55:31;;;;;;;;;;;;;;;-147.11;100.00;61570.13;5045970;28;19936;-56
2022/07/06 10:57:57;;;;;;;;;;;;;;;-147.11;100.00;61570.13;5046661;28;21030;-58
2022/07/06 11:00:22;;;;;;;;;;;;;;;-147.11;100.00;61570.13;5048500;28;20423;-61
2022/07/06 11:02:48;;;;;;;;;;;;;;;-147.11;100.00;61570.13;5043391;28;19916;-60
2022/07/06 11:05:33;;;;;;;;;;;;;;;-147.11;100.00;61570.13;5034249;28;20439;-65
2022/07/06 11:08:01;;;;;;;;;;;;;;;-147.11;100.00;61570.13;5036671;28;19960;-62
2022/07/06 11:10:27;;;;;;;;;;;;;;;-147.11;100.00;61570.13;5044116;28;19932;-63
2022/07/06 11:13:00;;;;;;;;;;;;;;;-147.11;100.00;61570.13;5043465;28;19928;-61
2022/07/06 11:15:47;;;;;;;;;;;;;;;-147.11;100.00;61570.13;5036535;28;19912;-57
2022/07/06 11:18:13;;;;;;;;;;;;;;;-147.11;100.00;61570.13;5040958;28;19912;-57
2022/07/06 11:20:39;;;;;;;;;;;;;;;-147.11;100.00;61570.13;5038448;28;19924;-60
2022/07/06 11:23:04;;;;;;;;;;;;;;;-147.11;100.00;61570.13;5037214;28;20011;-58
2022/07/06 11:25:30;;;;;;;;;;;;;;;-147.11;100.00;61570.13;5046570;28;20352;-57
2022/07/06 11:27:55;;;;;;;;;;;;;;;-147.11;100.00;61570.13;5044073;28;19924;-59
2022/07/06 11:30:21;;;;;;;;;;;;;;;-147.11;100.00;61570.13;5041804;28;19938;-58
2022/07/06 11:32:47;;;;;;;;;;;;;;;-147.11;100.00;61570.13;5033218;28;19924;-60
2022/07/06 11:35:12;;;;;;;;;;;;;;;-147.11;100.00;61570.13;5037701;28;19925;-61
2022/07/06 11:37:37;;;;;;;;;;;;;;;-147.11;100.00;61570.13;5044551;28;21320;-62
2022/07/06 11:40:06;;;;;;;;;;;;;;;-147.11;100.00;61570.13;5046920;28;19919;-62
2022/07/06 11:42:32;;;;;;;;;;;;;;;-147.11;100.00;61570.13;5052589;28;20015;-62
2022/07/06 11:44:57;;;;;;;;;;;;;;;-147.11;100.00;61570.13;5045803;28;20156;-60
2022/07/06 11:47:30;;;;;;;;;;;;;;;-147.11;100.00;61570.13;5047408;28;20386;-61
2022/07/06 11:49:55;;;;;;;;;;;;;;;-147.11;100.00;61570.13;5047339;28;19913;-60
2022/07/06 11:52:23;;;;;;;;;;;;;;;-147.11;100.00;61570.13;5049102;28;19935;-63
2022/07/06 11:54:48;;;;;;;;;;;;;;;-147.11;100.00;61570.13;5051873;28;19928;-59
2022/07/06 11:57:14;;;;;;;;;;;;;;;-147.11;100.00;61570.13;5051537;28;19920;-59
2022/07/06 11:59:41;;;;;;;;;;;;;;;-147.11;100.00;61570.13;5053308;28;20526;-62
2022/07/06 12:02:10;;;;;;;;;;;;;;;-147.11;100.00;61570.13;5050235;28;20372;-59
2022/07/06 12:04:43;;;;;;;;;;;;;;;-147.11;100.00;61570.13;5046853;28;19975;-59
2022/07/06 12:07:11;;;;;;;;;;;;;;;-147.11;100.00;61570.13;5048430;28;19919;-60
2022/07/06 12:09:38;;;;;;;;;;;;;;;-147.11;100.00;61570.13;5053916;28;19912;-58
2022/07/06 12:12:04;;;;;;;;;;;;;;;-147.11;100.00;61570.13;5053103;28;19959;-60
2022/07/06 12:14:31;;;;;;;;;;;;;;;-147.11;100.00;61570.13;5050526;28;19920;-61
2022/07/06 12:16:56;;;;;;;;;;;;;;;-147.11;100.00;61570.13;5042690;28;19974;-63
2022/07/06 12:19:22;;;;;;;;;;;;;;;-147.11;100.00;61570.13;5043752;28;20379;-62
2022/07/06 12:21:49;;;;;;;;;;;;;;;-147.11;100.00;61570.13;5027133;28;19924;-60